KFNB

Details ICAO KFNB
Name BRENNER FLD
Region United States
Timezone America/Chicago (UTC-5.0)
Plans Departing 0
Arriving 3
Stats Elevation 984 ft / 300 m (AMSL)
Location 40.078720° -95.592034°
Runways 1
Magnetic Variation 2.306° E
Sunrise 2018-05-23 11:01:50 UTC / 2018-05-23 06:01:50 Local
Sunset 2018-05-24 01:39:18 UTC / 2018-05-23 20:39:18 Local
Advertisement - Login to hide

Runways

ID Width Length Bearing (true) Bearing (mag) Surface Threshold Offset Overrun Length
14 59 ft / 18 m 4,002 ft / 1,220 m 148.90° 146.59° Concrete 0 ft / 0 m 0 ft / 0 m
32 59 ft / 18 m 4,002 ft / 1,220 m 328.90° 326.59° Concrete 0 ft / 0 m 0 ft / 0 m

Map

Weather


0- 5 10 15 20 25 30 35+ Temperature / ° C

Clouds and Precipitation
Forecast for 2018-05-23 06:00 UTC. Updated 4 hours ago

Ground ~20,000 ft ~40,000 ft Winds

METAR

KFNB 230853Z AUTO 14005KT 10SM CLR 19/17 A3001 RMK AO2 SLP153 T01890167 53003

TAF

Not found

Frequencies

Unicom 122.80 MHz CTAF/UNICOM
Warning: Do not use this data for real-world aviation or navigation. No guarantee of current accuracy is given.